Time;durP1;ratioP1;P1;durP2;ratioP2;P2;SDS_P1;SDS_P2;PMS_P1;PMS_P2;Temp;Humidity;BMP_temperature;BMP_pressure;BME280_temperature;BME280_humidity;BME280_pressure;Samples;Min_cycle;Max_cycle;Signal;HPM_P1;HPM_P2
2022/03/30 00:01:53;;;;;;;18.30;13.10;;;14.90;66.50;;;;;;5037581;28;20430;-88
2022/03/30 00:04:19;;;;;;;16.20;12.93;;;15.00;66.60;;;;;;5039526;28;20205;-89
2022/03/30 00:06:45;;;;;;;16.73;13.67;;;15.10;66.50;;;;;;5057310;28;20407;-89
2022/03/30 00:09:11;;;;;;;16.60;12.33;;;15.10;66.40;;;;;;5039912;28;20213;-89
2022/03/30 00:11:36;;;;;;;16.40;12.10;;;15.20;66.30;;;;;;5057931;28;20166;-89
2022/03/30 00:14:02;;;;;;;13.67;12.27;;;15.20;66.30;;;;;;5056970;28;20713;-89
2022/03/30 00:16:28;;;;;;;14.77;12.63;;;15.30;66.30;;;;;;5068078;28;20184;-88
2022/03/30 00:18:54;;;;;;;13.17;11.77;;;15.30;66.20;;;;;;5059250;28;20473;-89
2022/03/30 00:21:20;;;;;;;14.33;11.60;;;15.30;66.20;;;;;;5059827;28;20208;-89
2022/03/30 00:23:45;;;;;;;15.60;13.40;;;15.40;66.20;;;;;;5059855;28;20237;-89
2022/03/30 00:26:11;;;;;;;17.43;12.47;;;15.40;66.20;;;;;;5060094;28;20181;-89
2022/03/30 00:28:37;;;;;;;17.37;13.23;;;15.50;66.20;;;;;;5060841;28;20243;-89
2022/03/30 00:31:03;;;;;;;13.03;11.70;;;15.50;66.20;;;;;;5060769;28;20178;-88
2022/03/30 00:33:29;;;;;;;16.90;13.00;;;15.50;66.10;;;;;;5060315;28;20477;-89
2022/03/30 00:35:55;;;;;;;17.53;13.37;;;15.50;66.30;;;;;;5069156;28;20425;-88
2022/03/30 00:38:21;;;;;;;14.60;11.83;;;15.40;66.20;;;;;;5067971;28;20445;-89
2022/03/30 00:40:48;;;;;;;14.03;12.40;;;15.40;66.20;;;;;;5060458;28;20422;-89
2022/03/30 00:43:14;;;;;;;14.37;12.27;;;15.40;66.20;;;;;;5063338;28;20441;-88
2022/03/30 00:45:40;;;;;;;16.23;12.77;;;15.40;66.30;;;;;;5058786;28;20422;-89
2022/03/30 00:48:07;;;;;;;17.97;15.80;;;15.40;66.40;;;;;;5058555;28;20497;-89
2022/03/30 00:50:32;;;;;;;15.40;13.03;;;15.30;66.50;;;;;;5058721;28;20453;-89
2022/03/30 00:52:58;;;;;;;15.17;12.40;;;15.30;66.60;;;;;;5076928;28;20439;-89
2022/03/30 00:55:25;;;;;;;17.00;13.00;;;15.30;66.60;;;;;;5058865;28;20223;-89
2022/03/30 00:57:53;;;;;;;15.70;12.80;;;15.20;66.70;;;;;;5076395;28;20688;-89
2022/03/30 01:00:19;;;;;;;16.10;13.67;;;15.20;66.80;;;;;;5077048;28;20422;-89
2022/03/30 01:02:48;;;;;;;17.20;14.43;;;15.10;66.90;;;;;;5076649;28;20517;-89
2022/03/30 01:05:16;;;;;;;17.00;13.50;;;15.10;67.10;;;;;;5058462;28;20446;-89
2022/03/30 01:07:41;;;;;;;14.60;13.07;;;15.00;67.20;;;;;;5058802;28;20434;-90
2022/03/30 01:10:09;;;;;;;16.03;12.73;;;14.90;67.30;;;;;;5059063;28;20421;-89
2022/03/30 01:12:38;;;;;;;15.37;13.77;;;14.80;67.40;;;;;;5058841;28;20426;-89
2022/03/30 01:15:06;;;;;;;16.17;12.43;;;14.70;67.50;;;;;;5058303;28;20498;-89
2022/03/30 01:17:32;;;;;;;18.90;13.70;;;14.60;67.60;;;;;;5038456;28;20442;-90
2022/03/30 01:19:58;;;;;;;14.33;12.90;;;14.60;67.60;;;;;;5056799;28;20436;-90
2022/03/30 01:22:23;;;;;;;18.00;13.13;;;14.50;67.60;;;;;;5047094;28;20438;-89
2022/03/30 01:24:49;;;;;;;15.10;13.60;;;14.50;67.90;;;;;;5046771;28;20181;-90
2022/03/30 01:27:15;;;;;;;15.33;13.60;;;14.40;67.90;;;;;;5055971;28;20200;-90
2022/03/30 01:32:27;;;;;;;16.20;13.60;;;14.30;68.30;;;;;;5056381;28;20477;-90
2022/03/30 01:34:57;;;;;;;18.03;14.33;;;14.20;68.40;;;;;;5038596;28;20266;-90
2022/03/30 01:37:23;;;;;;;17.40;13.50;;;14.10;68.50;;;;;;5038319;28;20441;-89
2022/03/30 01:39:50;;;;;;;14.55;13.00;;;14.00;68.60;;;;;;5039726;28;20427;-90
2022/03/30 01:42:16;;;;;;;18.23;14.00;;;14.00;68.60;;;;;;5039641;28;20212;-89
2022/03/30 01:44:43;;;;;;;16.98;13.35;;;14.00;68.80;;;;;;5038758;28;20435;-90
2022/03/30 01:47:10;;;;;;;18.10;13.90;;;13.90;68.80;;;;;;5056604;28;20200;-90
2022/03/30 01:49:36;;;;;;;18.25;13.95;;;13.90;68.90;;;;;;5058533;28;20228;-90
2022/03/30 01:52:03;;;;;;;16.00;13.47;;;13.80;69.00;;;;;;5045838;28;20201;-89
2022/03/30 01:54:33;;;;;;;16.73;13.25;;;13.80;69.00;;;;;;5055092;28;20418;-89
2022/03/30 01:56:59;;;;;;;18.55;14.20;;;13.70;69.80;;;;;;5037714;28;20217;-89
2022/03/30 01:59:25;;;;;;;17.70;13.63;;;13.70;69.00;;;;;;5038114;28;20177;-89
2022/03/30 02:01:52;;;;;;;17.73;13.85;;;13.70;69.00;;;;;;5055674;28;20196;-88
2022/03/30 02:04:18;;;;;;;16.70;14.00;;;13.60;69.00;;;;;;5037910;28;20178;-90
2022/03/30 02:06:43;;;;;;;18.00;13.50;;;13.50;69.00;;;;;;5056195;28;20411;-90
2022/03/30 02:09:12;;;;;;;17.47;14.13;;;13.50;69.20;;;;;;5056242;28;20948;-90
2022/03/30 02:11:38;;;;;;;17.98;14.57;;;13.40;69.30;;;;;;5038979;28;20169;-89
2022/03/30 02:14:04;;;;;;;17.45;14.20;;;13.40;69.50;;;;;;5039036;28;20193;-89
2022/03/30 02:16:30;;;;;;;19.60;14.00;;;13.30;69.40;;;;;;5051875;28;20180;-88
2022/03/30 02:18:56;;;;;;;16.03;13.70;;;13.30;69.50;;;;;;5059156;28;20225;-89
2022/03/30 02:21:22;;;;;;;22.30;15.20;;;13.20;69.50;;;;;;5057535;28;20185;-89
2022/03/30 02:23:49;;;;;;;18.03;13.87;;;13.20;69.50;;;;;;5074713;28;20393;-90
2022/03/30 02:26:15;;;;;;;16.38;14.50;;;13.10;69.30;;;;;;5074537;28;20169;-89
2022/03/30 02:28:42;;;;;;;16.63;14.80;;;13.00;69.20;;;;;;5074996;28;20203;-89
2022/03/30 02:31:08;;;;;;;20.60;16.05;;;12.90;69.10;;;;;;5057109;28;20181;-89
2022/03/30 02:33:34;;;;;;;22.47;15.50;;;12.80;69.10;;;;;;5074659;28;20568;-89
2022/03/30 02:36:00;;;;;;;19.97;15.63;;;12.70;69.20;;;;;;5075203;28;20261;-90
2022/03/30 02:38:25;;;;;;;22.90;16.47;;;12.70;69.30;;;;;;5057163;28;20201;-89
2022/03/30 02:40:51;;;;;;;25.13;17.10;;;12.60;69.30;;;;;;5057008;28;20509;-89
2022/03/30 02:43:19;;;;;;;25.47;16.30;;;12.50;69.50;;;;;;5057208;28;20193;-89
2022/03/30 02:45:46;;;;;;;22.67;17.52;;;12.50;69.50;;;;;;5058260;28;20189;-89
2022/03/30 02:48:18;;;;;;;23.20;17.02;;;12.40;69.40;;;;;;5059035;28;20355;-89
2022/03/30 02:50:47;;;;;;;25.25;17.50;;;12.40;69.50;;;;;;5076034;28;20178;-89
2022/03/30 02:53:14;;;;;;;25.20;18.33;;;12.40;69.50;;;;;;5077259;28;20654;-89
2022/03/30 02:55:39;;;;;;;27.33;18.67;;;12.30;69.50;;;;;;5065350;28;20200;-89
2022/03/30 02:58:06;;;;;;;27.20;18.63;;;12.30;69.50;;;;;;5056570;28;20189;-90
2022/03/30 03:00:32;;;;;;;23.50;18.50;;;12.10;69.60;;;;;;5074325;28;20177;-89
2022/03/30 03:03:00;;;;;;;27.85;18.52;;;12.10;69.80;;;;;;5056446;28;20291;-89
2022/03/30 03:05:31;;;;;;;27.65;18.55;;;12.00;69.80;;;;;;5057068;28;20181;-89
2022/03/30 03:07:58;;;;;;;27.67;19.85;;;11.90;70.00;;;;;;5057540;28;20250;-89
2022/03/30 03:10:25;;;;;;;23.65;19.52;;;11.90;70.20;;;;;;5057938;28;20192;-89
2022/03/30 03:12:52;;;;;;;28.88;20.02;;;11.80;70.50;;;;;;5057731;28;20197;-90
2022/03/30 03:15:17;;;;;;;28.20;19.88;;;11.70;70.70;;;;;;5056456;28;20721;-89
2022/03/30 03:17:43;;;;;;;30.53;21.20;;;11.60;71.00;;;;;;5034330;28;20275;-89
2022/03/30 03:20:11;;;;;;;27.37;23.00;;;11.50;71.30;;;;;;5035552;28;20699;-89
2022/03/30 03:22:37;;;;;;;30.27;21.45;;;11.40;71.60;;;;;;5035310;28;20737;-89
2022/03/30 03:25:04;;;;;;;28.83;20.48;;;11.30;71.70;;;;;;5035816;28;20188;-88
2022/03/30 03:27:30;;;;;;;29.52;22.02;;;11.30;71.90;;;;;;5037824;28;20198;-90
2022/03/30 03:29:56;;;;;;;29.10;22.13;;;11.30;72.10;;;;;;5016262;28;20750;-89
2022/03/30 03:32:22;;;;;;;31.50;22.23;;;11.20;72.20;;;;;;5016513;28;20202;-89
2022/03/30 03:34:47;;;;;;;27.57;23.63;;;11.20;72.40;;;;;;5033239;28;20682;-89
2022/03/30 03:37:13;;;;;;;31.00;23.13;;;11.20;72.60;;;;;;5018844;28;20943;-89
2022/03/30 03:39:40;;;;;;;31.57;23.50;;;11.20;72.80;;;;;;5038256;28;20175;-89
2022/03/30 03:42:06;;;;;;;27.13;22.75;;;11.10;72.90;;;;;;5036594;28;20194;-89
2022/03/30 03:44:32;;;;;;;29.42;21.35;;;11.00;73.00;;;;;;5038117;28;20186;-90
2022/03/30 03:46:57;;;;;;;32.50;23.37;;;11.00;73.30;;;;;;5038888;28;20270;-89
2022/03/30 03:49:23;;;;;;;30.67;21.63;;;11.00;73.40;;;;;;5038051;28;20226;-89
2022/03/30 03:51:49;;;;;;;39.83;22.87;;;10.90;73.40;;;;;;5038100;28;20177;-89
2022/03/30 03:54:15;;;;;;;41.08;23.27;;;10.80;73.60;;;;;;5042971;28;20174;-89
2022/03/30 03:56:41;;;;;;;33.53;22.93;;;10.80;73.90;;;;;;5038261;28;20643;-89
2022/03/30 03:59:07;;;;;;;35.15;23.60;;;10.70;74.10;;;;;;5020004;28;20592;-89
2022/03/30 04:01:34;;;;;;;35.50;22.70;;;10.70;74.10;;;;;;5037323;28;20213;-89
2022/03/30 04:03:59;;;;;;;26.67;21.95;;;10.70;74.10;;;;;;5036676;28;20393;-90
2022/03/30 04:06:25;;;;;;;26.03;22.07;;;10.70;74.20;;;;;;5020781;28;20643;-89
2022/03/30 04:08:51;;;;;;;29.10;21.30;;;10.70;74.40;;;;;;5019830;28;20789;-89
2022/03/30 04:11:17;;;;;;;29.93;21.60;;;10.70;74.40;;;;;;5036847;28;20274;-89
2022/03/30 04:13:42;;;;;;;26.53;21.50;;;10.60;74.50;;;;;;5036828;28;20409;-90
2022/03/30 04:16:08;;;;;;;28.23;20.47;;;10.60;74.80;;;;;;5029164;28;20994;-89
2022/03/30 04:18:34;;;;;;;29.83;20.63;;;10.50;74.80;;;;;;5060660;28;20267;-88
2022/03/30 04:21:00;;;;;;;29.10;21.37;;;10.50;74.90;;;;;;5079554;28;20235;-88
2022/03/30 04:23:25;;;;;;;27.30;21.70;;;10.60;75.10;;;;;;5060812;28;20216;-90
2022/03/30 04:25:51;;;;;;;32.70;20.73;;;10.50;75.10;;;;;;5062237;28;20335;-88
2022/03/30 04:28:17;;;;;;;27.80;21.23;;;10.50;75.20;;;;;;5062773;28;20209;-88
2022/03/30 04:30:44;;;;;;;29.55;22.15;;;10.50;75.30;;;;;;5059066;28;20422;-88
2022/03/30 04:33:10;;;;;;;32.40;21.35;;;10.50;75.50;;;;;;5059112;28;20305;-88
2022/03/30 04:35:38;;;;;;;28.90;22.17;;;10.50;75.60;;;;;;5061670;28;20287;-88
2022/03/30 04:38:05;;;;;;;27.15;20.27;;;10.50;75.60;;;;;;5057543;28;20196;-90
2022/03/30 04:40:32;;;;;;;29.98;21.45;;;10.50;75.60;;;;;;5077381;28;20178;-89
2022/03/30 04:42:57;;;;;;;30.88;21.88;;;10.40;75.60;;;;;;5059305;28;20608;-89
2022/03/30 04:45:23;;;;;;;32.67;22.67;;;10.50;75.70;;;;;;5060299;28;20181;-89
2022/03/30 04:47:51;;;;;;;31.38;22.40;;;10.40;75.80;;;;;;5059430;28;20548;-89
2022/03/30 04:50:17;;;;;;;26.58;20.42;;;10.50;75.80;;;;;;5057802;28;20221;-90
2022/03/30 04:52:43;;;;;;;27.87;22.50;;;10.40;75.70;;;;;;5076372;28;20204;-91
2022/03/30 04:55:09;;;;;;;34.53;23.90;;;10.40;75.90;;;;;;5059579;28;20180;-91
2022/03/30 04:57:36;;;;;;;60.20;31.42;;;10.30;76.00;;;;;;5056272;28;20439;-90
2022/03/30 05:00:04;;;;;;;58.53;31.95;;;10.30;76.20;;;;;;5065863;28;20716;-90
2022/03/30 05:02:33;;;;;;;39.03;27.60;;;10.20;76.40;;;;;;5064724;28;20190;-90
2022/03/30 05:04:59;;;;;;;66.00;34.88;;;10.20;76.60;;;;;;5055876;28;20197;-90
2022/03/30 05:07:24;;;;;;;39.53;27.70;;;10.30;76.70;;;;;;5056303;28;20754;-91
2022/03/30 05:09:51;;;;;;;44.67;31.00;;;10.30;76.60;;;;;;5070782;28;20209;-94
2022/03/30 05:12:17;;;;;;;47.00;36.95;;;10.40;76.60;;;;;;5052721;28;20204;-91
2022/03/30 05:14:43;;;;;;;32.65;25.13;;;10.40;76.80;;;;;;5066892;28;20189;-91
2022/03/30 05:17:09;;;;;;;28.60;22.70;;;10.40;76.90;;;;;;5058918;28;20535;-90
2022/03/30 05:19:35;;;;;;;29.60;22.60;;;10.40;77.00;;;;;;5076050;28;20488;-91
2022/03/30 05:22:01;;;;;;;33.95;23.60;;;10.40;77.20;;;;;;5058459;28;20209;-89
2022/03/30 05:24:27;;;;;;;32.63;25.20;;;10.40;77.30;;;;;;5076386;28;20239;-90
2022/03/30 05:26:53;;;;;;;34.33;23.47;;;10.40;77.30;;;;;;5075720;28;20495;-91
2022/03/30 05:29:20;;;;;;;35.72;25.27;;;10.40;77.30;;;;;;5060593;28;20205;-90
2022/03/30 05:31:46;;;;;;;29.90;24.52;;;10.40;77.40;;;;;;5055160;28;20184;-90
2022/03/30 05:34:12;;;;;;;32.40;24.67;;;10.50;77.40;;;;;;5047796;28;20647;-90
2022/03/30 05:36:37;;;;;;;42.60;23.70;;;10.50;77.40;;;;;;5072776;28;20424;-93
2022/03/30 05:39:24;;;;;;;31.50;23.60;;;10.60;77.40;;;;;;5059505;28;20185;-91
2022/03/30 05:41:50;;;;;;;30.67;22.35;;;10.60;77.50;;;;;;5072231;28;20211;-96
2022/03/30 05:44:15;;;;;;;31.35;22.20;;;10.70;77.60;;;;;;5068576;28;20655;-93
2022/03/30 05:46:41;;;;;;;32.67;22.53;;;10.80;77.60;;;;;;5073028;28;20196;-93
2022/03/30 05:49:07;;;;;;;32.90;21.83;;;10.80;77.80;;;;;;5075663;28;20201;-93
2022/03/30 05:51:33;;;;;;;29.60;21.80;;;10.90;77.80;;;;;;5046814;28;20867;-93
2022/03/30 05:54:00;;;;;;;33.53;20.83;;;10.90;77.90;;;;;;5047011;28;20808;-92
2022/03/30 05:59:12;;;;;;;26.63;20.25;;;11.10;78.10;;;;;;5066089;28;20184;-92
2022/03/30 06:01:38;;;;;;;27.80;19.23;;;11.10;78.10;;;;;;5040467;28;20217;-92
2022/03/30 06:04:04;;;;;;;27.35;20.15;;;11.20;78.20;;;;;;5065060;28;20201;-93
2022/03/30 06:06:30;;;;;;;34.07;21.53;;;11.40;78.40;;;;;;5050457;28;20181;-93
2022/03/30 06:08:55;;;;;;;29.00;19.40;;;11.50;78.50;;;;;;5073986;28;20473;-92
2022/03/30 06:11:21;;;;;;;27.43;20.23;;;11.60;78.50;;;;;;5043104;28;20296;-92
2022/03/30 06:13:47;;;;;;;58.97;35.50;;;11.80;78.50;;;;;;5041259;28;20708;-93
2022/03/30 06:16:16;;;;;;;83.00;40.83;;;11.90;78.60;;;;;;5051876;28;20435;-92
2022/03/30 06:18:43;;;;;;;150.15;77.60;;;12.00;79.00;;;;;;5045560;28;20241;-93
2022/03/30 06:21:09;;;;;;;207.55;104.80;;;12.10;79.00;;;;;;5063211;28;20235;-91
2022/03/30 06:23:36;;;;;;;50.42;34.28;;;12.30;79.10;;;;;;5038171;28;20734;-91
2022/03/30 06:26:03;;;;;;;21.58;16.65;;;12.40;79.10;;;;;;5076298;28;20220;-92
2022/03/30 06:28:29;;;;;;;19.35;14.90;;;12.60;78.80;;;;;;5051268;28;20209;-92
2022/03/30 06:30:56;;;;;;;22.60;13.98;;;12.70;78.60;;;;;;5047564;28;20189;-93
2022/03/30 06:33:22;;;;;;;18.02;14.63;;;12.80;78.70;;;;;;5043113;28;20206;-92
2022/03/30 06:35:48;;;;;;;19.45;14.13;;;12.90;78.70;;;;;;5047923;28;20180;-92
2022/03/30 06:38:14;;;;;;;16.60;12.30;;;13.00;78.90;;;;;;5056418;28;20201;-90
2022/03/30 06:40:40;;;;;;;18.30;13.20;;;13.10;78.80;;;;;;5052504;28;20611;-92
2022/03/30 06:43:06;;;;;;;22.53;17.40;;;13.20;79.70;;;;;;5072736;28;20224;-89
2022/03/30 06:45:32;;;;;;;26.80;16.57;;;13.30;78.80;;;;;;5053966;28;20186;-92
2022/03/30 06:47:58;;;;;;;23.83;13.23;;;13.50;78.60;;;;;;5048287;28;20193;-89
2022/03/30 06:50:24;;;;;;;20.13;13.40;;;13.60;78.60;;;;;;5071609;28;20434;-89
2022/03/30 06:52:51;;;;;;;16.63;12.32;;;13.70;78.50;;;;;;5071423;28;20288;-88
2022/03/30 06:55:16;;;;;;;15.30;11.63;;;13.80;78.40;;;;;;5053574;28;20181;-89
2022/03/30 06:57:43;;;;;;;16.40;12.67;;;13.90;78.10;;;;;;5071551;28;20460;-90
2022/03/30 07:00:13;;;;;;;13.70;11.07;;;14.10;77.80;;;;;;5047819;28;20196;-90
2022/03/30 07:02:39;;;;;;;15.37;11.67;;;14.20;77.80;;;;;;5049829;28;20467;-91
2022/03/30 07:05:06;;;;;;;15.50;11.80;;;14.40;77.40;;;;;;5041924;28;20434;-90
2022/03/30 07:10:18;;;;;;;18.17;10.93;;;14.50;76.90;;;;;;5061489;28;20540;-89
2022/03/30 07:12:48;;;;;;;13.40;10.03;;;14.60;77.00;;;;;;5068977;28;20982;-89
2022/03/30 07:15:16;;;;;;;17.17;11.13;;;14.70;77.00;;;;;;5060147;28;20177;-89
2022/03/30 07:17:54;;;;;;;14.30;10.90;;;14.70;77.60;;;;;;5078771;28;20938;-90
2022/03/30 07:20:25;;;;;;;13.30;9.57;;;14.90;77.00;;;;;;5066878;28;20448;-89
2022/03/30 07:22:51;;;;;;;9.90;8.90;;;15.00;76.90;;;;;;5059541;28;20440;-88
2022/03/30 07:25:18;;;;;;;15.70;10.83;;;15.10;76.60;;;;;;5054321;28;20433;-86
2022/03/30 07:27:47;;;;;;;12.77;10.67;;;15.30;76.50;;;;;;5072645;28;20946;-88
2022/03/30 07:30:15;;;;;;;24.50;10.63;;;15.30;76.40;;;;;;5050639;28;21252;-88
2022/03/30 07:32:43;;;;;;;17.30;8.57;;;15.50;76.00;;;;;;5056067;28;21005;-91
2022/03/30 07:35:12;;;;;;;15.40;8.83;;;15.60;75.60;;;;;;5079757;28;20976;-88
2022/03/30 07:37:39;;;;;;;12.50;10.60;;;15.70;75.40;;;;;;5065048;28;20727;-89
2022/03/30 07:40:07;;;;;;;17.40;9.23;;;15.70;75.10;;;;;;5061364;28;20441;-93
2022/03/30 07:42:34;;;;;;;14.40;9.20;;;15.80;74.80;;;;;;5069882;28;20528;-92
2022/03/30 07:45:00;;;;;;;24.30;12.33;;;15.90;74.80;;;;;;5054662;28;20446;-92
2022/03/30 07:47:25;;;;;;;16.90;10.03;;;16.00;74.70;;;;;;5055181;28;21042;-95
2022/03/30 07:49:52;;;;;;;12.70;10.10;;;16.10;75.10;;;;;;5050659;28;20237;-94
2022/03/30 07:52:20;;;;;;;10.93;8.37;;;16.20;74.50;;;;;;5061931;28;20816;-95
2022/03/30 07:54:47;;;;;;;16.50;9.27;;;16.40;74.10;;;;;;5058955;28;20942;-94
2022/03/30 07:57:13;;;;;;;14.27;8.33;;;16.50;73.90;;;;;;5081186;28;20479;-90
2022/03/30 07:59:39;;;;;;;17.63;8.63;;;16.60;73.20;;;;;;5059702;28;20782;-96
2022/03/30 08:02:05;;;;;;;14.33;8.70;;;16.70;73.00;;;;;;5058091;28;20437;-94
2022/03/30 08:04:34;;;;;;;19.37;12.07;;;16.80;73.30;;;;;;5051841;28;21042;-96
2022/03/30 08:07:00;;;;;;;12.70;8.60;;;16.90;72.90;;;;;;5079511;28;20806;-92
2022/03/30 08:09:25;;;;;;;23.10;10.80;;;17.10;72.50;;;;;;5038927;28;20482;-94
2022/03/30 08:11:52;;;;;;;26.00;11.50;;;17.20;71.80;;;;;;5044370;28;20263;-90
2022/03/30 08:14:19;;;;;;;21.43;8.47;;;17.30;71.40;;;;;;5075598;28;20276;-90
2022/03/30 08:16:44;;;;;;;21.07;8.57;;;17.30;71.00;;;;;;5080073;28;20454;-90
2022/03/30 08:19:12;;;;;;;81.37;40.10;;;17.30;70.70;;;;;;5069766;28;20473;-91
2022/03/30 08:24:22;;;;;;;28.63;14.07;;;17.30;70.90;;;;;;5061388;28;20192;-90
2022/03/30 08:26:48;;;;;;;26.40;11.27;;;17.30;70.90;;;;;;5043107;28;20431;-90
2022/03/30 08:29:14;;;;;;;15.90;8.50;;;17.30;70.90;;;;;;5054715;28;20568;-91
2022/03/30 08:31:40;;;;;;;18.83;11.73;;;17.30;69.90;;;;;;5063429;28;21052;-91
2022/03/30 08:34:06;;;;;;;25.37;10.20;;;17.40;70.60;;;;;;5058988;28;20521;-91
2022/03/30 08:36:32;;;;;;;16.90;9.63;;;17.40;70.60;;;;;;5052364;28;20211;-92
2022/03/30 08:38:59;;;;;;;17.83;10.60;;;17.50;70.20;;;;;;5057137;28;20177;-91
2022/03/30 08:41:25;;;;;;;18.53;9.20;;;17.50;70.20;;;;;;5060025;28;20432;-91
2022/03/30 08:43:52;;;;;;;14.27;9.80;;;17.50;70.00;;;;;;5059552;28;20883;-92
2022/03/30 08:46:19;;;;;;;19.37;9.83;;;17.50;69.90;;;;;;5058779;28;20426;-91
2022/03/30 08:48:44;;;;;;;25.77;11.63;;;17.50;70.30;;;;;;5062785;28;20470;-92
2022/03/30 08:51:11;;;;;;;21.13;12.43;;;17.50;70.20;;;;;;5058733;28;20440;-91
2022/03/30 08:53:37;;;;;;;36.33;12.40;;;17.50;70.00;;;;;;5075436;28;20227;-92
2022/03/30 08:56:03;;;;;;;29.70;10.83;;;17.40;70.10;;;;;;5051739;28;20446;-91
2022/03/30 08:58:29;;;;;;;18.03;9.40;;;17.50;69.90;;;;;;5055675;28;20209;-92
2022/03/30 09:01:09;;;;;;;17.27;9.93;;;17.60;69.70;;;;;;5047238;28;20432;-92
2022/03/30 09:03:36;;;;;;;18.17;9.40;;;17.70;69.80;;;;;;5037498;28;20469;-91
2022/03/30 09:06:03;;;;;;;21.87;9.67;;;17.80;69.60;;;;;;5055885;28;21084;-90
2022/03/30 09:08:29;;;;;;;21.33;11.77;;;17.80;69.50;;;;;;5031317;28;20570;-91
2022/03/30 09:10:56;;;;;;;32.40;10.80;;;17.80;69.50;;;;;;5049165;28;20900;-90
2022/03/30 09:13:22;;;;;;;27.73;11.43;;;17.80;69.30;;;;;;5031079;28;20198;-91
2022/03/30 09:15:50;;;;;;;17.13;9.83;;;17.70;69.40;;;;;;5064209;28;20635;-90
2022/03/30 09:18:18;;;;;;;32.33;11.93;;;17.60;69.50;;;;;;5048059;28;20477;-92
2022/03/30 09:20:46;;;;;;;19.73;11.20;;;17.50;69.50;;;;;;5054705;28;20799;-91
2022/03/30 09:23:13;;;;;;;45.17;11.83;;;17.50;69.90;;;;;;5076773;28;20465;-91
2022/03/30 09:25:44;;;;;;;25.67;10.70;;;17.40;69.90;;;;;;5060368;28;20434;-92
2022/03/30 09:28:10;;;;;;;25.20;11.10;;;17.30;70.10;;;;;;5054696;28;20453;-91
2022/03/30 09:30:37;;;;;;;21.43;11.33;;;17.20;70.20;;;;;;5073144;28;20433;-90
2022/03/30 09:33:03;;;;;;;25.43;11.70;;;17.20;70.50;;;;;;5052236;28;20515;-90
2022/03/30 09:35:32;;;;;;;15.77;10.13;;;17.20;70.60;;;;;;5036403;28;20931;-90
2022/03/30 09:38:13;;;;;;;14.63;9.60;;;17.20;70.40;;;;;;5051714;28;20259;-90
2022/03/30 09:41:00;;;;;;;20.80;10.40;;;17.30;70.60;;;;;;5057691;28;20880;-92
2022/03/30 09:43:34;;;;;;;23.93;10.00;;;17.30;70.50;;;;;;5072394;28;20445;-89
2022/03/30 09:46:13;;;;;;;25.00;10.70;;;17.30;70.30;;;;;;5057937;28;20426;-90
2022/03/30 09:48:49;;;;;;;17.93;10.43;;;17.20;70.50;;;;;;5074325;28;20477;-92
2022/03/30 09:51:17;;;;;;;20.93;9.40;;;17.20;70.60;;;;;;5044531;28;20492;-89
2022/03/30 09:53:43;;;;;;;17.50;9.47;;;17.20;70.50;;;;;;5046493;28;20442;-91
2022/03/30 09:56:17;;;;;;;16.33;10.60;;;17.20;70.60;;;;;;5067992;28;20473;-89
2022/03/30 09:58:44;;;;;;;28.23;11.60;;;17.20;70.70;;;;;;5066239;28;20506;-91
2022/03/30 10:01:14;;;;;;;10.80;8.80;;;17.30;70.60;;;;;;5043847;28;20422;-91
2022/03/30 10:03:42;;;;;;;18.03;9.80;;;17.30;70.60;;;;;;5052310;28;20544;-91
2022/03/30 10:06:09;;;;;;;14.67;9.93;;;17.30;70.60;;;;;;5042815;28;20516;-90
2022/03/30 10:08:36;;;;;;;20.20;10.47;;;17.30;70.30;;;;;;5045739;28;20470;-90
2022/03/30 10:11:02;;;;;;;28.27;10.90;;;17.30;70.50;;;;;;5051135;28;20525;-89
2022/03/30 10:13:28;;;;;;;18.40;10.03;;;17.20;70.30;;;;;;5049066;28;21035;-90
2022/03/30 10:15:54;;;;;;;18.23;10.30;;;17.20;70.60;;;;;;5065714;28;20438;-90
2022/03/30 10:18:20;;;;;;;15.07;9.30;;;17.20;70.30;;;;;;5043482;28;20234;-90
2022/03/30 10:20:50;;;;;;;15.83;9.77;;;17.20;70.30;;;;;;5049893;28;20774;-90
2022/03/30 10:23:45;;;;;;;20.03;9.97;;;17.20;70.40;;;;;;5047688;28;20671;-90
2022/03/30 10:26:33;;;;;;;17.73;9.83;;;17.20;70.60;;;;;;5035654;28;20435;-90
2022/03/30 10:29:05;;;;;;;15.33;9.67;;;17.20;70.40;;;;;;5051286;28;20474;-89
2022/03/30 10:31:31;;;;;;;14.90;10.37;;;17.10;70.60;;;;;;5045014;28;20835;-90
2022/03/30 10:33:57;;;;;;;15.70;9.10;;;17.10;70.70;;;;;;5051414;28;20423;-88
2022/03/30 10:36:29;;;;;;;11.50;9.20;;;17.20;70.60;;;;;;5049827;28;20518;-88
2022/03/30 10:39:18;;;;;;;15.00;9.50;;;17.20;70.90;;;;;;5054710;28;20770;-90
2022/03/30 10:42:09;;;;;;;14.40;10.97;;;17.30;71.40;;;;;;5017102;28;20600;-90
2022/03/30 10:44:36;;;;;;;20.27;10.80;;;17.30;71.00;;;;;;5045268;28;21609;-90
2022/03/30 10:47:07;;;;;;;11.10;8.53;;;17.30;70.80;;;;;;5040820;28;20532;-88
2022/03/30 10:49:57;;;;;;;12.23;9.60;;;17.40;70.60;;;;;;5042880;28;20561;-88
2022/03/30 10:52:39;;;;;;;16.47;10.53;;;17.40;70.60;;;;;;5026574;28;20470;-90
2022/03/30 10:55:14;;;;;;;12.37;9.13;;;17.30;70.70;;;;;;5043704;28;20432;-88
2022/03/30 10:57:57;;;;;;;16.70;10.33;;;17.30;70.50;;;;;;5039024;28;20534;-89
2022/03/30 11:00:28;;;;;;;18.73;9.27;;;17.30;70.80;;;;;;5047927;28;20481;-90
2022/03/30 11:03:25;;;;;;;14.13;9.33;;;17.30;70.40;;;;;;5036728;28;20436;-90
2022/03/30 11:06:06;;;;;;;12.50;9.20;;;17.30;70.60;;;;;;5039529;28;20422;-91
2022/03/30 11:08:32;;;;;;;18.60;9.70;;;17.30;70.80;;;;;;5040973;28;20475;-88
2022/03/30 11:11:01;;;;;;;14.43;9.70;;;17.30;71.00;;;;;;5045986;28;20427;-89
2022/03/30 11:13:36;;;;;;;12.80;9.57;;;17.30;71.00;;;;;;5031746;28;20206;-91
2022/03/30 11:16:06;;;;;;;14.83;9.37;;;17.30;70.60;;;;;;5049993;28;20446;-89
2022/03/30 11:18:32;;;;;;;13.70;10.77;;;17.30;70.70;;;;;;5050868;28;20477;-90
2022/03/30 11:21:15;;;;;;;12.53;9.67;;;17.40;70.80;;;;;;5061048;28;20437;-91
2022/03/30 11:23:55;;;;;;;14.73;9.70;;;17.40;70.40;;;;;;5046880;28;20489;-88
2022/03/30 11:26:44;;;;;;;14.00;9.97;;;17.50;70.70;;;;;;5044084;28;20437;-91
2022/03/30 11:29:40;;;;;;;16.77;11.57;;;17.50;70.30;;;;;;5063286;28;20473;-90
2022/03/30 11:32:18;;;;;;;16.37;11.07;;;17.60;70.40;;;;;;5048038;28;20456;-91
2022/03/30 11:34:46;;;;;;;13.93;11.00;;;17.60;69.90;;;;;;5042520;28;20488;-89
2022/03/30 11:37:12;;;;;;;14.47;10.33;;;17.60;69.70;;;;;;5050854;28;20516;-90
2022/03/30 11:39:39;;;;;;;12.77;8.83;;;17.60;69.40;;;;;;5052039;28;20446;-88
2022/03/30 11:42:05;;;;;;;17.60;10.53;;;17.60;70.10;;;;;;5060071;28;20552;-89
2022/03/30 11:47:19;;;;;;;12.10;8.80;;;17.60;69.00;;;;;;5063703;28;20224;-89
2022/03/30 11:49:52;;;;;;;12.47;9.60;;;17.60;68.90;;;;;;5072901;28;21000;-92
2022/03/30 11:52:20;;;;;;;16.50;10.00;;;17.70;68.70;;;;;;5039507;28;20454;-90
2022/03/30 11:54:50;;;;;;;14.20;8.93;;;17.70;68.70;;;;;;5066081;28;20430;-90
2022/03/30 11:57:17;;;;;;;11.77;9.27;;;17.70;68.30;;;;;;5052520;28;20457;-92
2022/03/30 12:00:08;;;;;;;12.63;9.30;;;17.80;68.30;;;;;;5077091;28;20432;-91
2022/03/30 12:02:35;;;;;;;12.73;9.10;;;17.80;68.20;;;;;;5072303;28;20467;-91
2022/03/30 12:05:00;;;;;;;11.43;9.30;;;17.80;68.30;;;;;;5085131;28;20446;-90
2022/03/30 12:07:26;;;;;;;13.80;9.67;;;17.90;68.10;;;;;;5092172;28;20509;-92
2022/03/30 12:09:53;;;;;;;12.70;9.87;;;18.00;68.00;;;;;;5061587;28;20221;-89
2022/03/30 12:12:35;;;;;;;13.10;9.70;;;18.00;67.80;;;;;;5051310;28;20800;-91
2022/03/30 12:15:04;;;;;;;16.80;9.40;;;18.10;67.70;;;;;;5044185;28;20541;-92
2022/03/30 12:17:29;;;;;;;12.70;9.50;;;18.10;67.60;;;;;;5046238;28;20442;-91
2022/03/30 12:19:55;;;;;;;12.00;8.87;;;18.10;67.80;;;;;;5043539;28;20958;-92
2022/03/30 12:22:23;;;;;;;13.40;10.07;;;18.10;68.00;;;;;;5070685;28;20263;-92
2022/03/30 12:24:50;;;;;;;13.03;10.10;;;18.10;68.60;;;;;;5045105;28;20456;-92
2022/03/30 12:27:15;;;;;;;13.80;9.80;;;18.00;68.60;;;;;;5073334;28;20464;-91
2022/03/30 12:29:44;;;;;;;13.70;9.47;;;18.10;68.70;;;;;;5068541;28;21127;-90
2022/03/30 12:32:11;;;;;;;12.83;9.97;;;18.10;68.60;;;;;;5054318;28;20465;-90
2022/03/30 12:34:39;;;;;;;12.53;9.30;;;18.10;68.50;;;;;;5056901;28;20521;-93
2022/03/30 12:37:07;;;;;;;9.73;8.73;;;18.20;68.30;;;;;;5060910;28;20440;-92
2022/03/30 12:39:46;;;;;;;9.93;8.20;;;18.30;67.80;;;;;;5063183;28;20950;-91
2022/03/30 12:42:26;;;;;;;10.90;9.10;;;18.30;68.00;;;;;;5072676;28;20483;-89
2022/03/30 12:44:54;;;;;;;15.57;9.60;;;18.30;67.90;;;;;;5055465;28;20456;-91
2022/03/30 12:47:30;;;;;;;11.50;9.13;;;18.30;67.90;;;;;;5074556;28;20896;-91